Time;durP1;ratioP1;P1;durP2;ratioP2;P2;SDS_P1;SDS_P2;PMS_P1;PMS_P2;Temp;Humidity;BMP_temperature;BMP_pressure;BME280_temperature;BME280_humidity;BME280_pressure;Samples;Min_cycle;Max_cycle;Signal;HPM_P1;HPM_P2
2022/10/09 00:00:10;;;;;;;1.50;1.50;;;20.20;69.30;;;;;;5088192;28;43608;-71
2022/10/09 00:02:41;;;;;;;1.80;1.80;;;20.30;68.90;;;;;;5089204;28;43563;-71
2022/10/09 00:05:09;;;;;;;1.70;1.60;;;20.40;68.50;;;;;;5089226;28;43420;-71
2022/10/09 00:07:38;;;;;;;1.90;1.90;;;20.40;68.40;;;;;;5089257;27;43490;-73
2022/10/09 00:10:06;;;;;;;1.50;1.50;;;20.40;68.40;;;;;;5088448;28;43493;-71
2022/10/09 00:12:34;;;;;;;1.80;1.80;;;20.30;68.50;;;;;;5089050;28;44006;-72
2022/10/09 00:15:02;;;;;;;1.60;1.60;;;20.20;68.70;;;;;;5088514;28;43458;-72
2022/10/09 00:17:30;;;;;;;1.60;1.60;;;20.20;69.30;;;;;;5088530;27;43476;-71
2022/10/09 00:20:00;;;;;;;1.50;1.50;;;20.20;69.40;;;;;;5089687;27;43414;-71
2022/10/09 00:22:28;;;;;;;1.50;1.50;;;20.20;69.30;;;;;;5088791;28;45113;-73
2022/10/09 00:24:57;;;;;;;1.47;1.47;;;20.10;69.10;;;;;;5089250;27;43489;-71
2022/10/09 00:27:25;;;;;;;1.50;1.50;;;20.10;69.30;;;;;;5086793;28;44015;-71
2022/10/09 00:29:53;;;;;;;1.60;1.60;;;20.00;69.70;;;;;;5115102;27;43597;-72
2022/10/09 00:32:21;;;;;;;1.67;1.67;;;20.00;69.80;;;;;;5088691;28;43838;-71
2022/10/09 00:34:50;;;;;;;1.50;1.50;;;20.10;69.60;;;;;;5084461;28;44036;-70
2022/10/09 00:37:18;;;;;;;1.40;1.40;;;20.00;69.50;;;;;;5088308;28;43940;-72
2022/10/09 00:39:46;;;;;;;1.50;1.50;;;20.00;69.50;;;;;;5085038;28;43385;-71
2022/10/09 00:42:15;;;;;;;1.30;1.30;;;20.00;69.70;;;;;;5083573;28;46664;-72
2022/10/09 00:44:48;;;;;;;1.50;1.50;;;20.00;70.10;;;;;;5085991;28;43452;-71
2022/10/09 00:47:18;;;;;;;1.57;1.57;;;20.00;69.80;;;;;;5088561;27;43409;-71
2022/10/09 00:49:46;;;;;;;1.57;1.57;;;20.20;69.50;;;;;;5086577;28;43393;-70
2022/10/09 00:52:14;;;;;;;1.50;1.50;;;20.30;68.80;;;;;;5088376;27;43630;-71
2022/10/09 00:54:42;;;;;;;1.50;1.50;;;20.40;68.60;;;;;;5086520;28;44671;-70
2022/10/09 00:57:10;;;;;;;1.47;1.47;;;20.40;68.50;;;;;;5088456;27;43461;-71
2022/10/09 00:59:39;;;;;;;1.60;1.60;;;20.40;68.60;;;;;;5083893;28;43387;-72
2022/10/09 01:02:07;;;;;;;1.50;1.50;;;20.30;68.60;;;;;;5091850;27;43844;-73
2022/10/09 01:04:35;;;;;;;1.40;1.40;;;20.20;68.70;;;;;;5092233;27;43421;-73
2022/10/09 01:07:25;;;;;;;1.50;1.50;;;20.20;69.40;;;;;;5091684;27;43375;-72
2022/10/09 01:09:56;;;;;;;1.50;1.50;;;20.10;69.30;;;;;;5091970;27;43484;-72
2022/10/09 01:12:34;;;;;;;1.57;1.57;;;20.10;69.20;;;;;;5091669;28;43895;-72
2022/10/09 01:15:08;;;;;;;1.57;1.57;;;20.10;70.00;;;;;;5091457;28;43482;-74
2022/10/09 01:17:41;;;;;;;1.30;1.30;;;20.00;69.40;;;;;;5091163;28;43486;-73
2022/10/09 01:20:40;;;;;;;1.47;1.47;;;20.00;69.90;;;;;;5093241;27;43517;-73
2022/10/09 01:23:38;;;;;;;1.53;1.53;;;20.00;69.60;;;;;;5086968;27;45909;-73
2022/10/09 01:26:14;;;;;;;1.40;1.40;;;20.00;69.50;;;;;;5088258;28;43505;-73
2022/10/09 01:28:45;;;;;;;1.60;1.60;;;20.00;69.60;;;;;;5090847;28;43461;-73
2022/10/09 01:31:13;;;;;;;1.60;1.60;;;19.90;69.80;;;;;;5092422;27;43448;-73
2022/10/09 01:33:41;;;;;;;1.60;1.60;;;20.00;70.20;;;;;;5092294;28;43746;-73
2022/10/09 01:36:09;;;;;;;1.40;1.40;;;20.00;69.80;;;;;;5090784;27;43415;-72
2022/10/09 01:38:37;;;;;;;1.73;1.63;;;20.20;69.40;;;;;;5091750;28;43554;-73
2022/10/09 01:41:05;;;;;;;1.30;1.30;;;20.30;68.90;;;;;;5093558;27;43534;-74
2022/10/09 01:43:33;;;;;;;1.23;1.23;;;20.40;68.60;;;;;;5091281;27;44035;-73
2022/10/09 01:46:22;;;;;;;1.40;1.40;;;20.40;68.50;;;;;;5089575;28;43446;-73
2022/10/09 01:48:54;;;;;;;1.30;1.30;;;20.40;68.50;;;;;;5090232;28;43548;-74
2022/10/09 01:51:22;;;;;;;1.43;1.43;;;20.30;68.60;;;;;;5086792;28;43461;-73
2022/10/09 01:53:50;;;;;;;1.50;1.50;;;20.20;68.80;;;;;;5091073;27;43838;-72
2022/10/09 01:56:19;;;;;;;1.50;1.50;;;20.20;69.30;;;;;;5089635;28;44668;-72
2022/10/09 01:58:48;;;;;;;1.33;1.33;;;20.20;69.30;;;;;;5091629;27;43568;-73
2022/10/09 02:01:17;;;;;;;1.50;1.50;;;20.10;69.20;;;;;;5092264;27;43435;-72
2022/10/09 02:03:47;;;;;;;1.40;1.40;;;20.10;69.20;;;;;;5091618;27;43610;-74
2022/10/09 02:06:16;;;;;;;1.47;1.47;;;20.00;69.30;;;;;;5090540;27;43564;-72
2022/10/09 02:08:45;;;;;;;1.60;1.60;;;20.00;69.80;;;;;;5091170;28;43420;-72
2022/10/09 02:11:14;;;;;;;1.20;1.20;;;20.00;69.80;;;;;;5092647;27;43421;-74
2022/10/09 02:13:42;;;;;;;1.57;1.57;;;20.00;69.70;;;;;;5090179;28;44204;-72
2022/10/09 02:16:12;;;;;;;1.50;1.50;;;20.00;69.60;;;;;;5089248;28;45250;-73
2022/10/09 02:18:42;;;;;;;1.20;1.20;;;19.90;69.60;;;;;;5087627;28;43503;-72
2022/10/09 02:21:12;;;;;;;1.47;1.47;;;19.90;70.00;;;;;;5090121;28;43402;-73
2022/10/09 02:23:40;;;;;;;1.40;1.40;;;20.00;70.10;;;;;;5090740;27;43784;-72
2022/10/09 02:26:08;;;;;;;1.40;1.40;;;20.00;69.70;;;;;;5091077;28;43414;-72
2022/10/09 02:28:36;;;;;;;1.20;1.20;;;20.20;69.30;;;;;;5091038;27;43906;-73
2022/10/09 02:31:12;;;;;;;1.40;1.40;;;20.20;69.00;;;;;;5089544;28;43463;-72
2022/10/09 02:33:40;;;;;;;1.40;1.40;;;20.20;68.90;;;;;;5090811;27;44117;-72
2022/10/09 02:36:08;;;;;;;1.70;1.70;;;20.20;69.30;;;;;;5088569;28;44764;-72
2022/10/09 02:38:37;;;;;;;1.30;1.30;;;20.20;69.20;;;;;;5091226;27;43510;-72
2022/10/09 02:41:05;;;;;;;1.50;1.50;;;20.20;69.10;;;;;;5089830;28;43606;-73
2022/10/09 02:43:33;;;;;;;1.20;1.20;;;20.10;69.00;;;;;;5088597;28;44100;-72
2022/10/09 02:46:01;;;;;;;1.40;1.40;;;20.10;69.10;;;;;;5090520;28;43437;-72
2022/10/09 02:48:29;;;;;;;1.50;1.50;;;20.00;69.50;;;;;;5091079;27;44194;-73
2022/10/09 02:50:57;;;;;;;1.40;1.40;;;20.00;69.70;;;;;;5089973;28;43585;-73
2022/10/09 02:53:25;;;;;;;1.30;1.30;;;20.00;69.50;;;;;;5090414;28;43930;-71
2022/10/09 02:55:54;;;;;;;1.50;1.50;;;20.00;69.50;;;;;;5090784;28;43437;-73
2022/10/09 02:58:22;;;;;;;1.60;1.60;;;20.00;69.60;;;;;;5091562;28;43428;-72
2022/10/09 03:00:50;;;;;;;1.20;1.20;;;19.90;69.80;;;;;;5090910;28;43475;-73
2022/10/09 03:03:18;;;;;;;1.40;1.40;;;19.90;70.00;;;;;;5090293;27;43882;-73
2022/10/09 03:05:46;;;;;;;1.40;1.40;;;20.00;69.70;;;;;;5088338;28;44306;-72
2022/10/09 03:08:14;;;;;;;1.30;1.30;;;20.10;69.30;;;;;;5090623;27;43534;-74
2022/10/09 03:10:42;;;;;;;1.50;1.50;;;20.30;68.90;;;;;;5090491;27;43919;-73
2022/10/09 03:13:11;;;;;;;1.70;1.60;;;20.30;68.60;;;;;;5090047;27;43991;-73
2022/10/09 03:15:39;;;;;;;1.20;1.20;;;20.30;68.50;;;;;;5090150;27;43868;-73
2022/10/09 03:18:07;;;;;;;1.30;1.30;;;20.20;68.70;;;;;;5089579;27;43479;-72
2022/10/09 03:20:35;;;;;;;1.60;1.60;;;20.20;68.90;;;;;;5091145;27;43425;-73
2022/10/09 03:23:03;;;;;;;1.20;1.20;;;20.10;69.10;;;;;;5089935;28;43949;-73
2022/10/09 03:25:31;;;;;;;1.30;1.30;;;20.00;69.40;;;;;;5088819;28;44304;-73
2022/10/09 03:27:59;;;;;;;1.30;1.30;;;20.00;69.40;;;;;;5090616;27;44038;-73
2022/10/09 03:30:28;;;;;;;1.40;1.40;;;20.00;69.40;;;;;;5088693;27;43601;-73
2022/10/09 03:32:56;;;;;;;1.30;1.30;;;20.00;69.50;;;;;;5090423;28;43924;-73
2022/10/09 03:35:24;;;;;;;1.17;1.17;;;19.90;69.50;;;;;;5089570;27;43473;-71
2022/10/09 03:37:52;;;;;;;1.40;1.40;;;19.90;70.00;;;;;;5089321;28;43458;-73
2022/10/09 03:40:20;;;;;;;1.20;1.20;;;19.90;69.80;;;;;;5090099;28;43412;-74
2022/10/09 03:42:47;;;;;;;1.30;1.30;;;19.90;69.60;;;;;;5088411;28;43786;-72
2022/10/09 03:45:16;;;;;;;1.17;1.17;;;19.90;69.60;;;;;;5090204;27;43443;-73
2022/10/09 03:47:46;;;;;;;1.30;1.30;;;19.90;69.80;;;;;;5088162;28;43426;-73
2022/10/09 03:50:14;;;;;;;1.30;1.30;;;19.90;70.30;;;;;;5089950;27;43518;-72
2022/10/09 03:52:41;;;;;;;1.50;1.50;;;19.90;69.90;;;;;;5089347;27;43838;-73
2022/10/09 03:55:09;;;;;;;1.40;1.40;;;20.00;69.50;;;;;;5091715;27;43455;-73
2022/10/09 03:57:37;;;;;;;1.40;1.40;;;20.20;69.10;;;;;;5093287;27;43447;-72
2022/10/09 04:00:06;;;;;;;1.30;1.30;;;20.20;68.70;;;;;;5093147;27;43572;-72
2022/10/09 04:02:34;;;;;;;1.20;1.20;;;20.20;68.50;;;;;;5093085;27;43804;-73
2022/10/09 04:05:04;;;;;;;1.20;1.20;;;20.20;68.50;;;;;;5093221;27;43419;-73
2022/10/09 04:07:33;;;;;;;1.37;1.37;;;20.20;68.70;;;;;;5091871;28;43446;-72
2022/10/09 04:10:01;;;;;;;1.30;1.30;;;20.10;68.80;;;;;;5093776;28;43472;-72
2022/10/09 04:12:29;;;;;;;1.43;1.43;;;20.00;69.50;;;;;;5092062;28;43866;-73
2022/10/09 04:14:57;;;;;;;1.30;1.30;;;20.00;69.40;;;;;;5093102;28;43438;-72
2022/10/09 04:17:25;;;;;;;1.30;1.30;;;20.00;69.20;;;;;;5092748;28;43405;-72
2022/10/09 04:19:53;;;;;;;0.97;0.97;;;20.00;69.30;;;;;;5092737;28;43611;-73
2022/10/09 04:22:22;;;;;;;1.23;1.23;;;19.90;69.30;;;;;;5092672;27;43614;-72
2022/10/09 04:24:50;;;;;;;1.50;1.50;;;19.90;69.90;;;;;;5088455;27;43399;-73
2022/10/09 04:27:18;;;;;;;1.27;1.27;;;19.90;69.90;;;;;;5092904;28;43553;-72
2022/10/09 04:29:45;;;;;;;1.30;1.30;;;19.90;69.60;;;;;;5092981;27;44039;-73
2022/10/09 04:32:13;;;;;;;1.30;1.30;;;19.90;69.50;;;;;;5093109;27;43843;-72
2022/10/09 04:34:41;;;;;;;1.23;1.23;;;19.90;69.60;;;;;;5092660;27;43437;-72
2022/10/09 04:37:09;;;;;;;1.13;1.13;;;19.90;70.00;;;;;;5091320;28;43461;-72
2022/10/09 04:39:38;;;;;;;1.30;1.30;;;19.90;70.10;;;;;;5092954;28;44076;-73
2022/10/09 04:42:06;;;;;;;1.20;1.20;;;20.00;69.80;;;;;;5092282;28;43980;-72
2022/10/09 04:44:34;;;;;;;1.20;1.20;;;20.10;69.30;;;;;;5090065;28;44747;-72
2022/10/09 04:47:02;;;;;;;1.27;1.27;;;20.30;68.80;;;;;;5092492;27;43441;-73
2022/10/09 04:49:33;;;;;;;1.20;1.20;;;20.30;68.30;;;;;;5092354;27;43542;-73
2022/10/09 04:52:00;;;;;;;1.20;1.20;;;20.40;68.30;;;;;;5092053;28;43840;-74
2022/10/09 04:54:28;;;;;;;1.10;1.10;;;20.30;68.30;;;;;;5091637;27;43444;-72
2022/10/09 04:56:58;;;;;;;1.10;1.10;;;20.20;68.50;;;;;;5092378;27;43421;-73
2022/10/09 04:59:25;;;;;;;1.30;1.30;;;20.20;68.80;;;;;;5092892;28;43429;-73
2022/10/09 05:01:53;;;;;;;1.20;1.20;;;20.10;69.20;;;;;;5091593;27;43650;-73
2022/10/09 05:04:21;;;;;;;1.00;1.00;;;20.10;69.10;;;;;;5090719;28;44628;-73
2022/10/09 05:06:49;;;;;;;1.20;1.20;;;20.00;69.00;;;;;;5089644;27;43476;-73
2022/10/09 05:09:17;;;;;;;1.07;1.07;;;20.00;69.20;;;;;;5092538;28;43717;-73
2022/10/09 05:11:45;;;;;;;1.20;1.20;;;20.00;69.40;;;;;;5091674;27;43680;-73
2022/10/09 05:14:14;;;;;;;1.20;1.20;;;19.90;69.70;;;;;;5091656;28;43453;-72
2022/10/09 05:16:42;;;;;;;1.00;1.00;;;19.90;69.60;;;;;;5092051;28;43485;-73
2022/10/09 05:19:30;;;;;;;1.10;1.10;;;19.90;69.40;;;;;;5092506;27;43441;-72
2022/10/09 05:21:58;;;;;;;1.17;1.17;;;19.90;69.50;;;;;;5090704;28;43933;-72
2022/10/09 05:24:26;;;;;;;1.20;1.20;;;19.90;69.60;;;;;;5091698;28;43437;-73
2022/10/09 05:26:54;;;;;;;1.00;1.00;;;19.80;70.00;;;;;;5092605;27;43416;-73
2022/10/09 05:29:24;;;;;;;1.00;1.00;;;19.80;69.90;;;;;;5091971;28;44079;-73
2022/10/09 05:31:51;;;;;;;1.27;1.27;;;19.80;69.70;;;;;;5090403;27;43858;-74
2022/10/09 05:34:19;;;;;;;1.07;1.07;;;19.80;69.60;;;;;;5091607;28;43956;-73
2022/10/09 05:36:47;;;;;;;1.20;1.20;;;19.80;69.70;;;;;;5091304;27;43568;-73
2022/10/09 05:39:16;;;;;;;1.27;1.27;;;19.80;70.10;;;;;;5090518;27;44097;-73
2022/10/09 05:41:44;;;;;;;1.10;1.10;;;19.80;70.20;;;;;;5089176;27;43842;-72
2022/10/09 05:44:12;;;;;;;1.00;1.00;;;19.90;69.90;;;;;;5091570;27;43864;-72
2022/10/09 05:46:41;;;;;;;1.40;1.40;;;20.00;69.30;;;;;;5091032;28;44022;-74
2022/10/09 05:49:10;;;;;;;1.23;1.23;;;20.20;68.90;;;;;;5092362;27;43523;-73
2022/10/09 05:51:39;;;;;;;1.10;1.10;;;20.20;68.50;;;;;;5090074;27;44058;-73
2022/10/09 05:54:07;;;;;;;1.20;1.20;;;20.20;68.50;;;;;;5090599;27;43488;-73
2022/10/09 05:56:35;;;;;;;1.20;1.20;;;20.20;68.60;;;;;;5089194;28;44035;-72
2022/10/09 05:59:05;;;;;;;1.10;1.10;;;20.10;68.70;;;;;;5091534;27;43701;-72
2022/10/09 06:01:33;;;;;;;1.20;1.20;;;20.00;69.00;;;;;;5090522;28;43883;-72
2022/10/09 06:04:03;;;;;;;1.00;1.00;;;20.00;69.30;;;;;;5090872;27;43355;-72
2022/10/09 06:06:32;;;;;;;1.10;1.10;;;20.00;69.30;;;;;;5091306;27;44138;-73
2022/10/09 06:09:00;;;;;;;1.07;1.07;;;20.00;69.30;;;;;;5091396;27;43414;-74
2022/10/09 06:11:30;;;;;;;1.20;1.20;;;19.90;69.20;;;;;;5087711;28;43975;-72
2022/10/09 06:13:58;;;;;;;1.13;1.13;;;19.90;69.30;;;;;;5088082;28;43452;-74
2022/10/09 06:16:28;;;;;;;1.13;1.13;;;19.90;69.90;;;;;;5091217;28;43509;-73
2022/10/09 06:18:56;;;;;;;1.03;1.03;;;19.80;69.70;;;;;;5085743;28;43525;-73
2022/10/09 06:21:25;;;;;;;1.10;1.10;;;19.80;69.50;;;;;;5089790;28;44018;-73
2022/10/09 06:23:56;;;;;;;1.00;1.00;;;19.80;69.50;;;;;;5090847;27;43470;-72
2022/10/09 06:26:24;;;;;;;1.10;1.10;;;19.80;69.60;;;;;;5087852;28;44018;-72
2022/10/09 06:28:52;;;;;;;1.20;1.20;;;19.80;70.10;;;;;;5091870;27;44044;-72
2022/10/09 06:31:22;;;;;;;1.43;1.40;;;19.80;70.10;;;;;;5090052;28;43882;-74
2022/10/09 06:33:50;;;;;;;1.03;1.03;;;19.90;69.70;;;;;;5091047;27;43417;-73
2022/10/09 06:36:19;;;;;;;1.10;1.10;;;20.00;69.20;;;;;;5089027;28;43465;-73
2022/10/09 06:38:48;;;;;;;1.03;1.03;;;20.20;68.80;;;;;;5090168;28;43433;-72
2022/10/09 06:41:17;;;;;;;1.10;1.10;;;20.20;68.50;;;;;;5090721;27;43622;-73
2022/10/09 06:43:48;;;;;;;1.07;1.07;;;20.20;68.50;;;;;;5090329;27;44082;-73
2022/10/09 06:46:16;;;;;;;1.00;1.00;;;20.20;68.50;;;;;;5091211;28;43424;-73
2022/10/09 06:48:44;;;;;;;1.10;1.10;;;20.10;68.70;;;;;;5090435;27;43382;-72
2022/10/09 06:51:12;;;;;;;1.10;1.10;;;20.00;68.90;;;;;;5090916;28;43979;-72
2022/10/09 06:53:42;;;;;;;1.10;1.10;;;20.00;69.50;;;;;;5090317;28;44311;-72
2022/10/09 06:56:11;;;;;;;1.20;1.20;;;19.90;69.30;;;;;;5090637;28;43478;-73
2022/10/09 06:58:39;;;;;;;1.20;1.20;;;19.90;69.30;;;;;;5092034;27;43493;-74
2022/10/09 07:01:08;;;;;;;1.00;1.00;;;19.90;69.30;;;;;;5091356;28;43912;-73
2022/10/09 07:03:36;;;;;;;1.10;1.10;;;19.80;69.40;;;;;;5084445;28;43469;-73
2022/10/09 07:06:08;;;;;;;1.17;1.17;;;19.80;69.90;;;;;;5090549;27;43444;-74
2022/10/09 07:08:36;;;;;;;1.10;1.10;;;19.80;69.80;;;;;;5089535;28;43434;-73
2022/10/09 07:11:13;;;;;;;1.23;1.23;;;20.00;69.50;;;;;;5088611;28;43590;-73
2022/10/09 07:13:41;;;;;;;1.43;1.10;;;20.00;69.10;;;;;;5089146;27;43429;-72
2022/10/09 07:16:09;;;;;;;0.90;0.90;;;20.00;69.00;;;;;;5085613;28;43413;-72
2022/10/09 07:18:37;;;;;;;1.33;1.30;;;20.00;69.40;;;;;;5090862;27;43399;-72
2022/10/09 07:21:07;;;;;;;1.13;1.13;;;20.00;69.30;;;;;;5089765;28;43867;-74
2022/10/09 07:23:35;;;;;;;1.10;1.10;;;20.00;69.20;;;;;;5090844;27;43453;-73
2022/10/09 07:26:09;;;;;;;0.93;0.93;;;19.90;69.10;;;;;;5090079;28;43516;-73
2022/10/09 07:28:38;;;;;;;1.07;1.07;;;19.90;69.30;;;;;;5090732;27;43450;-72
2022/10/09 07:31:07;;;;;;;1.00;1.00;;;19.90;69.60;;;;;;5093398;27;43841;-73
2022/10/09 07:33:35;;;;;;;0.90;0.90;;;19.80;69.70;;;;;;5094864;28;43446;-73
2022/10/09 07:36:03;;;;;;;1.00;1.00;;;19.80;69.70;;;;;;5094074;27;43439;-72
2022/10/09 07:38:34;;;;;;;1.00;1.00;;;19.80;69.50;;;;;;5092705;27;43513;-73
2022/10/09 07:41:02;;;;;;;1.20;1.20;;;19.80;69.60;;;;;;5094586;27;45030;-73
2022/10/09 07:43:30;;;;;;;1.20;1.20;;;19.80;69.80;;;;;;5093063;27;45320;-72
2022/10/09 07:46:00;;;;;;;1.20;1.20;;;19.80;70.10;;;;;;5094187;27;43410;-73
2022/10/09 07:48:28;;;;;;;1.10;1.10;;;19.80;70.00;;;;;;5092087;28;43439;-74
2022/10/09 07:50:56;;;;;;;1.10;1.10;;;19.90;69.40;;;;;;5093246;27;43879;-71
2022/10/09 07:53:24;;;;;;;1.20;1.20;;;20.00;69.30;;;;;;5091494;28;45001;-73
2022/10/09 07:55:51;;;;;;;1.10;1.10;;;20.00;69.10;;;;;;5091777;28;43505;-72
2022/10/09 07:58:19;;;;;;;0.90;0.90;;;20.00;69.50;;;;;;5092480;28;43568;-72
2022/10/09 08:00:48;;;;;;;1.10;1.10;;;19.90;69.40;;;;;;5092973;28;44982;-72
2022/10/09 08:03:17;;;;;;;1.00;1.00;;;19.90;69.30;;;;;;5093894;27;43426;-73
2022/10/09 08:05:45;;;;;;;1.00;1.00;;;19.90;69.30;;;;;;5093399;28;43412;-74
2022/10/09 08:08:13;;;;;;;1.13;1.13;;;19.90;69.30;;;;;;5092876;27;43537;-72
2022/10/09 08:10:40;;;;;;;1.13;1.13;;;19.80;69.50;;;;;;5093983;28;43894;-71
2022/10/09 08:13:08;;;;;;;1.10;1.10;;;19.80;70.00;;;;;;5094314;27;43455;-73
2022/10/09 08:15:40;;;;;;;1.00;1.00;;;19.80;69.70;;;;;;5094126;27;43409;-72
2022/10/09 08:18:08;;;;;;;1.30;1.30;;;19.90;69.40;;;;;;5092704;28;43477;-72
2022/10/09 08:20:37;;;;;;;0.90;0.90;;;20.00;69.30;;;;;;5093823;27;43831;-72
2022/10/09 08:23:05;;;;;;;1.20;1.20;;;19.90;69.10;;;;;;5093274;28;43703;-73
2022/10/09 08:25:34;;;;;;;1.10;1.10;;;19.90;69.50;;;;;;5091254;28;43438;-73
2022/10/09 08:28:02;;;;;;;1.10;1.10;;;19.90;69.50;;;;;;5093058;27;43532;-73
2022/10/09 08:30:30;;;;;;;1.50;1.50;;;19.90;69.40;;;;;;5088020;28;45661;-72
2022/10/09 08:32:58;;;;;;;1.53;1.20;;;19.90;69.40;;;;;;5089717;28;43576;-72
2022/10/09 08:35:26;;;;;;;2.33;1.83;;;19.80;68.90;;;;;;5089365;27;44038;-73
2022/10/09 08:38:00;;;;;;;11.43;2.93;;;19.80;67.70;;;;;;5089256;28;43429;-73
2022/10/09 08:40:31;;;;;;;34.90;3.73;;;19.70;63.60;;;;;;5086090;27;46103;-72
2022/10/09 08:43:03;;;;;;;9.23;2.57;;;19.70;64.60;;;;;;5088526;27;43484;-73
2022/10/09 08:45:31;;;;;;;9.83;3.23;;;19.70;64.80;;;;;;5085631;28;43538;-72
2022/10/09 08:48:00;;;;;;;7.90;2.87;;;19.70;63.70;;;;;;5088628;27;43828;-70
2022/10/09 08:50:29;;;;;;;7.77;2.73;;;19.60;63.30;;;;;;5089625;27;43598;-71
2022/10/09 08:53:00;;;;;;;7.50;3.00;;;19.60;60.00;;;;;;5088930;28;43486;-72
2022/10/09 08:55:29;;;;;;;3.63;2.33;;;19.60;58.20;;;;;;5089057;28;43433;-70
2022/10/09 08:58:01;;;;;;;3.93;2.30;;;19.70;57.40;;;;;;5088991;27;43422;-72
2022/10/09 09:00:33;;;;;;;3.67;2.53;;;19.70;58.00;;;;;;5085657;28;44798;-70
2022/10/09 09:03:29;;;;;;;4.67;2.70;;;19.70;59.90;;;;;;5088636;28;43473;-71
2022/10/09 09:05:59;;;;;;;4.47;2.53;;;19.70;60.60;;;;;;5086077;27;43486;-71
2022/10/09 09:08:31;;;;;;;6.33;2.37;;;19.70;60.00;;;;;;5088636;27;43464;-72
2022/10/09 09:11:06;;;;;;;4.57;2.03;;;19.70;60.70;;;;;;5087449;27;43606;-73
2022/10/09 09:13:40;;;;;;;2.20;2.10;;;19.70;62.00;;;;;;5111283;27;46058;-70
2022/10/09 09:16:11;;;;;;;3.07;1.97;;;19.70;62.40;;;;;;5084720;28;43877;-72
2022/10/09 09:18:42;;;;;;;3.90;2.60;;;19.70;62.70;;;;;;5084166;28;43463;-70
2022/10/09 09:21:16;;;;;;;3.87;2.60;;;19.70;59.90;;;;;;5086512;28;45284;-71
2022/10/09 09:23:47;;;;;;;7.57;2.37;;;19.70;61.50;;;;;;5085964;28;43472;-74
2022/10/09 09:26:16;;;;;;;2.47;2.17;;;19.70;62.00;;;;;;5087257;27;43486;-72
2022/10/09 09:28:44;;;;;;;5.07;2.50;;;19.70;62.10;;;;;;5088267;27;43448;-71
2022/10/09 09:31:15;;;;;;;4.10;2.50;;;19.70;61.80;;;;;;5088022;27;43857;-70
2022/10/09 09:33:45;;;;;;;3.20;2.50;;;19.80;60.30;;;;;;5088250;28;43510;-70
2022/10/09 09:36:16;;;;;;;4.13;2.20;;;19.80;57.40;;;;;;5079817;27;43564;-72
2022/10/09 09:38:45;;;;;;;4.77;2.50;;;19.80;57.70;;;;;;5085700;28;44079;-71
2022/10/09 09:41:33;;;;;;;9.90;2.67;;;19.90;59.40;;;;;;5085555;27;43578;-71
2022/10/09 09:44:01;;;;;;;9.00;2.60;;;20.00;60.40;;;;;;5085748;28;43508;-72
2022/10/09 09:46:30;;;;;;;5.27;2.83;;;20.00;61.00;;;;;;5083469;28;44005;-73
2022/10/09 09:48:58;;;;;;;4.60;2.77;;;20.00;60.50;;;;;;5084973;28;43443;-70
2022/10/09 09:51:27;;;;;;;2.70;2.30;;;20.00;61.10;;;;;;5085845;28;43605;-71
2022/10/09 09:53:58;;;;;;;2.97;2.37;;;20.00;61.40;;;;;;5083661;28;45252;-70
2022/10/09 09:56:33;;;;;;;6.20;2.90;;;20.00;61.60;;;;;;5085496;28;43489;-72
2022/10/09 09:59:32;;;;;;;6.53;3.07;;;20.00;61.90;;;;;;5083410;28;43582;-72
2022/10/09 10:02:01;;;;;;;3.77;2.77;;;20.00;62.10;;;;;;5084341;28;43849;-71
2022/10/09 10:04:29;;;;;;;4.70;2.80;;;20.00;62.10;;;;;;5084383;28;43472;-71
2022/10/09 10:06:57;;;;;;;4.20;2.80;;;20.10;62.40;;;;;;5084637;28;43500;-73
2022/10/09 10:09:27;;;;;;;3.70;2.63;;;20.10;62.60;;;;;;5085704;28;43529;-71
2022/10/09 10:11:56;;;;;;;5.10;2.77;;;20.10;62.70;;;;;;5084912;28;43681;-72
2022/10/09 10:14:24;;;;;;;4.73;2.80;;;20.10;62.30;;;;;;5083380;28;44280;-70
2022/10/09 10:16:53;;;;;;;6.03;2.83;;;20.20;62.00;;;;;;5085725;28;43592;-72
2022/10/09 10:19:22;;;;;;;7.03;2.80;;;20.20;61.80;;;;;;5085548;28;43497;-72
2022/10/09 10:21:55;;;;;;;4.17;2.97;;;20.30;61.70;;;;;;5084920;27;43588;-72
2022/10/09 10:24:26;;;;;;;3.47;2.20;;;20.40;62.00;;;;;;5111395;27;44924;-70
2022/10/09 10:26:58;;;;;;;5.43;2.57;;;20.40;62.20;;;;;;5084574;28;44093;-71
2022/10/09 10:29:29;;;;;;;5.47;2.77;;;20.40;62.30;;;;;;5084609;27;43485;-71
2022/10/09 10:32:00;;;;;;;3.23;2.50;;;20.40;62.50;;;;;;5098171;27;45444;-69
2022/10/09 10:34:30;;;;;;;5.17;2.80;;;20.40;62.70;;;;;;5083502;28;44110;-73
2022/10/09 10:37:00;;;;;;;3.00;2.70;;;20.40;62.80;;;;;;5098859;27;44555;-71
2022/10/09 10:39:34;;;;;;;2.23;2.13;;;20.40;62.80;;;;;;5084184;28;43506;-73
2022/10/09 10:42:03;;;;;;;2.73;2.53;;;20.40;63.00;;;;;;5083816;28;43923;-74
2022/10/09 10:44:38;;;;;;;3.13;2.77;;;20.30;63.00;;;;;;5085119;27;44046;-70
2022/10/09 10:47:07;;;;;;;7.47;2.77;;;20.30;63.20;;;;;;5087452;28;43461;-71
2022/10/09 10:49:35;;;;;;;2.67;2.47;;;20.30;63.20;;;;;;5086245;28;44462;-70
2022/10/09 10:52:16;;;;;;;2.83;2.60;;;20.30;63.30;;;;;;5086502;28;43635;-70
2022/10/09 10:54:48;;;;;;;2.50;2.30;;;20.30;63.50;;;;;;5086223;28;43513;-70
2022/10/09 10:57:21;;;;;;;3.77;2.60;;;20.30;64.30;;;;;;5086287;28;43576;-71
2022/10/09 10:59:53;;;;;;;3.47;2.50;;;20.30;63.80;;;;;;5084988;28;43855;-72
2022/10/09 11:03:11;;;;;;;4.67;2.83;;;20.30;63.80;;;;;;5086527;28;43611;-71
2022/10/09 11:05:46;;;;;;;2.80;2.60;;;20.30;63.70;;;;;;5021740;28;43676;-70
2022/10/09 11:08:22;;;;;;;3.00;2.70;;;20.40;64.10;;;;;;5023627;28;43471;-72
2022/10/09 11:10:57;;;;;;;2.70;2.50;;;20.40;63.20;;;;;;5063598;27;43622;-70
2022/10/09 11:13:28;;;;;;;2.83;2.63;;;20.40;63.40;;;;;;5085566;28;45322;-70
2022/10/09 11:16:01;;;;;;;2.50;2.40;;;20.40;63.70;;;;;;5086742;28;43463;-71
2022/10/09 11:18:35;;;;;;;5.00;2.47;;;20.30;63.90;;;;;;5085767;28;44088;-71
2022/10/09 11:21:08;;;;;;;5.13;2.57;;;20.30;64.10;;;;;;5086963;28;43368;-69
2022/10/09 11:23:44;;;;;;;2.27;2.17;;;20.20;64.30;;;;;;5087037;28;43837;-70
2022/10/09 11:26:17;;;;;;;3.80;2.43;;;20.20;64.50;;;;;;5113309;27;45113;-70
2022/10/09 11:28:50;;;;;;;2.80;2.40;;;20.20;64.60;;;;;;5085120;27;43595;-70
2022/10/09 11:31:19;;;;;;;2.43;2.30;;;20.10;64.60;;;;;;5085410;28;43480;-73
2022/10/09 11:33:50;;;;;;;3.20;2.20;;;20.10;64.80;;;;;;5086590;27;43599;-71
2022/10/09 11:36:20;;;;;;;3.27;2.30;;;20.10;65.00;;;;;;5085689;28;43529;-71
2022/10/09 11:38:50;;;;;;;2.77;2.37;;;20.10;65.00;;;;;;5085897;28;43462;-72
2022/10/09 11:41:18;;;;;;;2.50;2.27;;;20.10;65.20;;;;;;5085504;28;43565;-72
2022/10/09 11:43:55;;;;;;;2.13;2.03;;;20.00;65.20;;;;;;5085762;28;43603;-70
2022/10/09 11:46:28;;;;;;;2.60;2.40;;;20.00;65.30;;;;;;5084728;28;44989;-71
2022/10/09 11:49:01;;;;;;;3.00;2.10;;;20.00;65.20;;;;;;5085620;28;43470;-70
2022/10/09 11:51:30;;;;;;;2.57;2.00;;;20.00;65.00;;;;;;5085797;28;43544;-71
2022/10/09 11:53:58;;;;;;;2.40;2.30;;;20.10;64.80;;;;;;5085907;28;43912;-71
2022/10/09 11:56:27;;;;;;;2.73;2.50;;;20.20;64.50;;;;;;5085433;27;44762;-70
2022/10/09 11:59:00;;;;;;;2.33;2.07;;;20.20;64.50;;;;;;5086122;28;43492;-71
2022/10/09 12:01:31;;;;;;;2.53;2.40;;;20.20;64.70;;;;;;5083907;28;43483;-70
2022/10/09 12:04:04;;;;;;;1.80;1.70;;;20.20;64.90;;;;;;5084469;27;43689;-69
2022/10/09 12:06:32;;;;;;;2.10;2.00;;;20.20;65.10;;;;;;5084226;28;44067;-70
2022/10/09 12:09:01;;;;;;;3.33;2.23;;;20.10;65.20;;;;;;5084663;28;43791;-71
2022/10/09 12:11:29;;;;;;;2.20;2.10;;;20.10;65.30;;;;;;5084209;28;43458;-71
2022/10/09 12:13:59;;;;;;;1.87;1.87;;;20.00;65.40;;;;;;5084423;28;43910;-72
2022/10/09 12:16:32;;;;;;;2.20;1.90;;;20.00;65.50;;;;;;5085777;27;44950;-71
2022/10/09 12:19:01;;;;;;;2.17;2.07;;;20.00;65.60;;;;;;5087393;28;43398;-73
2022/10/09 12:21:31;;;;;;;2.03;1.90;;;20.00;65.70;;;;;;5089074;28;43501;-70
2022/10/09 12:23:59;;;;;;;2.33;2.23;;;20.00;65.60;;;;;;5088603;28;44568;-71
2022/10/09 12:26:27;;;;;;;2.13;1.93;;;20.00;65.40;;;;;;5088396;28;43604;-71
2022/10/09 12:28:56;;;;;;;2.60;2.40;;;20.00;65.10;;;;;;5089365;28;43433;-70
2022/10/09 12:31:28;;;;;;;1.83;1.73;;;20.10;65.90;;;;;;5088679;28;44005;-72
2022/10/09 12:33:59;;;;;;;2.17;2.07;;;20.10;65.30;;;;;;5088082;28;43609;-70
2022/10/09 12:36:27;;;;;;;2.70;2.07;;;20.10;65.40;;;;;;5087474;28;44668;-71
2022/10/09 12:38:55;;;;;;;2.10;2.00;;;20.10;65.30;;;;;;5088411;27;43594;-71
2022/10/09 12:41:24;;;;;;;2.50;2.30;;;20.10;65.50;;;;;;5088458;28;43548;-70
2022/10/09 12:43:53;;;;;;;2.70;2.50;;;20.10;65.50;;;;;;5088425;27;43814;-71
2022/10/09 12:46:30;;;;;;;3.43;3.13;;;20.10;65.60;;;;;;5088814;28;43821;-71
2022/10/09 12:48:58;;;;;;;5.47;3.40;;;20.00;65.60;;;;;;5087006;28;43492;-70
2022/10/09 12:51:27;;;;;;;7.20;4.10;;;20.00;65.60;;;;;;5088801;27;43519;-70
2022/10/09 12:53:54;;;;;;;9.20;4.03;;;20.00;65.80;;;;;;5088000;28;43923;-69
2022/10/09 12:56:24;;;;;;;5.93;4.03;;;20.00;65.80;;;;;;5088639;27;43476;-71
2022/10/09 12:58:52;;;;;;;8.83;5.07;;;20.00;66.00;;;;;;5088049;27;43441;-70